createdAt,value
2018-04-15T00:01:15.100Z,98.50
2018-04-15T00:03:42.807Z,98.60
2018-04-15T00:06:11.826Z,98.60
2018-04-15T00:08:39.308Z,98.70
2018-04-15T00:11:06.908Z,98.80
2018-04-15T00:13:34.411Z,98.80
2018-04-15T00:16:01.949Z,98.90
2018-04-15T00:18:29.420Z,99.00
2018-04-15T00:20:57.798Z,99.10
2018-04-15T00:23:25.256Z,98.90
2018-04-15T00:25:52.876Z,99.00
2018-04-15T00:28:21.378Z,99.10
2018-04-15T00:30:49.730Z,98.80
2018-04-15T00:33:17.994Z,98.70
2018-04-15T00:35:45.628Z,98.70
2018-04-15T00:38:13.863Z,98.80
2018-04-15T00:40:42.195Z,98.90
2018-04-15T00:43:10.308Z,98.90
2018-04-15T00:45:38.621Z,98.90
2018-04-15T00:48:06.154Z,98.90
2018-04-15T00:50:33.668Z,99.10
2018-04-15T00:53:01.394Z,99.00
2018-04-15T00:55:29.216Z,99.00
2018-04-15T00:57:56.800Z,99.10
2018-04-15T01:00:24.367Z,99.10
2018-04-15T01:02:52.000Z,99.20
2018-04-15T01:05:19.543Z,99.30
2018-04-15T01:07:47.845Z,99.60
2018-04-15T01:10:15.439Z,99.60
2018-04-15T01:12:43.666Z,99.70
2018-04-15T01:15:11.169Z,99.70
2018-04-15T01:17:38.726Z,99.90
2018-04-15T01:20:06.296Z,99.80
2018-04-15T01:22:33.845Z,99.90
2018-04-15T01:25:01.355Z,99.90
2018-04-15T01:27:28.866Z,99.90
2018-04-15T01:29:56.731Z,99.90
2018-04-15T01:32:24.354Z,99.90
2018-04-15T01:34:52.034Z,99.90
2018-04-15T01:37:21.392Z,99.90
2018-04-15T01:39:49.100Z,99.90
2018-04-15T01:42:17.654Z,99.90
2018-04-15T01:44:45.914Z,99.90
2018-04-15T01:47:13.675Z,99.90
2018-04-15T01:49:41.358Z,99.90
2018-04-15T01:52:09.055Z,99.90
2018-04-15T01:54:36.759Z,99.90
2018-04-15T01:57:04.600Z,99.90
2018-04-15T01:59:33.045Z,99.90
2018-04-15T02:02:00.666Z,99.90
2018-04-15T02:04:29.185Z,99.90
2018-04-15T02:06:56.986Z,99.90
2018-04-15T02:09:24.540Z,99.90
2018-04-15T02:11:52.177Z,99.90
2018-04-15T02:14:19.788Z,99.90
2018-04-15T02:16:47.482Z,99.90
2018-04-15T02:19:15.459Z,99.90
2018-04-15T02:21:43.109Z,99.90
2018-04-15T02:24:11.517Z,99.90
2018-04-15T02:26:39.216Z,99.90
2018-04-15T02:29:06.907Z,99.90
2018-04-15T02:31:34.590Z,99.90
2018-04-15T02:34:03.121Z,99.90
2018-04-15T02:36:34.240Z,99.90
2018-04-15T02:39:02.625Z,99.90
2018-04-15T02:41:31.141Z,99.90
2018-04-15T02:43:58.716Z,99.90
2018-04-15T02:46:26.489Z,99.90
2018-04-15T02:48:54.098Z,99.90
2018-04-15T02:51:22.624Z,99.90
2018-04-15T02:53:52.884Z,99.90
2018-04-15T02:56:20.932Z,99.90
2018-04-15T02:58:48.528Z,99.90
2018-04-15T03:01:16.305Z,99.90
2018-04-15T03:03:45.527Z,99.90
2018-04-15T03:06:14.009Z,99.90
2018-04-15T03:08:44.699Z,99.90
2018-04-15T03:11:12.268Z,99.90
2018-04-15T03:13:39.795Z,99.90
2018-04-15T03:16:07.581Z,99.90
2018-04-15T03:18:35.140Z,99.90
2018-04-15T03:21:02.785Z,99.90
2018-04-15T03:23:31.290Z,99.90
2018-04-15T03:25:58.875Z,99.90
2018-04-15T03:28:26.357Z,99.90
2018-04-15T03:30:53.912Z,99.90
2018-04-15T03:33:21.450Z,99.90
2018-04-15T03:35:49.034Z,99.90
2018-04-15T03:38:16.601Z,99.90
2018-04-15T03:40:44.177Z,99.90
2018-04-15T03:43:11.790Z,99.90
2018-04-15T03:45:39.423Z,99.90
2018-04-15T03:48:06.956Z,99.90
2018-04-15T03:50:34.506Z,99.90
2018-04-15T03:53:02.207Z,99.90
2018-04-15T03:55:29.732Z,99.90
2018-04-15T03:57:58.013Z,99.90
2018-04-15T04:00:25.564Z,99.90
2018-04-15T04:02:53.460Z,99.90
2018-04-15T04:05:21.134Z,99.90
2018-04-15T04:07:48.848Z,99.90
2018-04-15T04:10:17.290Z,99.90
2018-04-15T04:12:44.864Z,99.90
2018-04-15T04:15:12.383Z,99.90
2018-04-15T04:17:39.899Z,99.90
2018-04-15T04:20:10.903Z,99.90
2018-04-15T04:22:39.183Z,99.90
2018-04-15T04:25:06.760Z,99.90
2018-04-15T04:27:35.228Z,99.90
2018-04-15T04:30:02.811Z,99.90
2018-04-15T04:32:30.362Z,99.90
2018-04-15T04:34:57.898Z,99.90
2018-04-15T04:37:26.266Z,99.90
2018-04-15T04:39:53.771Z,99.90
2018-04-15T04:42:22.360Z,99.90
2018-04-15T04:44:53.737Z,99.90
2018-04-15T04:47:21.322Z,99.90
2018-04-15T04:49:48.882Z,99.90
2018-04-15T04:52:16.405Z,99.90
2018-04-15T04:54:43.964Z,99.90
2018-04-15T04:57:11.574Z,99.90
2018-04-15T04:59:39.266Z,99.90
2018-04-15T05:02:06.758Z,99.90
2018-04-15T05:04:35.022Z,99.90
2018-04-15T05:07:02.611Z,99.90
2018-04-15T05:09:30.947Z,99.90
2018-04-15T05:12:00.136Z,99.90
2018-04-15T05:14:27.645Z,99.90
2018-04-15T05:16:55.543Z,99.90
2018-04-15T05:19:23.143Z,99.90
2018-04-15T05:21:50.943Z,99.90
2018-04-15T05:24:19.243Z,99.90
2018-04-15T05:26:46.944Z,99.90
2018-04-15T05:29:14.504Z,99.90
2018-04-15T05:31:42.557Z,99.90
2018-04-15T05:34:10.038Z,99.90
2018-04-15T05:36:37.631Z,99.90
2018-04-15T05:39:05.178Z,99.90
2018-04-15T05:41:32.881Z,99.90
2018-04-15T05:44:00.394Z,99.90
2018-04-15T05:46:27.991Z,99.90
2018-04-15T05:48:55.585Z,99.90
2018-04-15T05:51:23.942Z,99.90
2018-04-15T05:53:54.693Z,99.90
2018-04-15T05:56:22.211Z,99.90
2018-04-15T05:58:49.727Z,99.90
2018-04-15T06:01:17.385Z,99.90
2018-04-15T06:03:45.031Z,99.90
2018-04-15T06:06:12.788Z,99.90
2018-04-15T06:08:40.458Z,99.90
2018-04-15T06:11:11.138Z,99.90
2018-04-15T06:13:38.681Z,99.90
2018-04-15T06:16:06.253Z,99.90
2018-04-15T06:18:36.933Z,99.90
2018-04-15T06:21:04.431Z,99.90
2018-04-15T06:23:31.999Z,99.90
2018-04-15T06:25:59.522Z,99.90
2018-04-15T06:28:27.048Z,99.90
2018-04-15T06:30:55.548Z,99.90
2018-04-15T06:33:23.110Z,99.90
2018-04-15T06:35:51.638Z,99.90
2018-04-15T06:38:19.924Z,99.90
2018-04-15T06:40:47.492Z,99.90
2018-04-15T06:43:18.168Z,99.90
2018-04-15T06:45:45.928Z,99.90
2018-04-15T06:48:13.453Z,99.90
2018-04-15T06:50:41.090Z,99.90
2018-04-15T06:53:08.663Z,99.90
2018-04-15T06:55:36.429Z,99.90
2018-04-15T06:58:04.721Z,99.90
2018-04-15T07:00:32.400Z,99.90
2018-04-15T07:02:59.948Z,99.90
2018-04-15T07:05:27.459Z,99.90
2018-04-15T07:07:54.924Z,99.90
2018-04-15T07:10:22.526Z,99.90
2018-04-15T07:12:50.035Z,99.90
2018-04-15T07:15:17.567Z,99.90
2018-04-15T07:17:45.100Z,99.90
2018-04-15T07:20:12.539Z,99.90
2018-04-15T07:22:40.040Z,99.90
2018-04-15T07:25:08.288Z,99.90
2018-04-15T07:27:35.751Z,99.90
2018-04-15T07:30:03.643Z,99.90
2018-04-15T07:32:31.586Z,99.90
2018-04-15T07:34:59.815Z,99.90
2018-04-15T07:37:28.004Z,99.90
2018-04-15T07:39:55.659Z,99.90
2018-04-15T07:42:23.983Z,99.90
2018-04-15T07:44:51.472Z,99.90
2018-04-15T07:47:19.323Z,99.90
2018-04-15T07:49:46.810Z,99.90
2018-04-15T07:52:14.304Z,99.90
2018-04-15T07:54:41.767Z,99.90
2018-04-15T07:57:09.301Z,99.90
2018-04-15T07:59:36.741Z,99.90
2018-04-15T08:02:04.302Z,99.90
2018-04-15T08:04:31.908Z,99.90
2018-04-15T08:06:59.430Z,99.90
2018-04-15T08:09:27.088Z,99.90
2018-04-15T08:11:55.398Z,99.90
2018-04-15T08:14:22.911Z,99.90
2018-04-15T08:16:51.066Z,99.90
2018-04-15T08:19:19.302Z,99.90
2018-04-15T08:21:46.863Z,99.90
2018-04-15T08:24:14.307Z,99.90
2018-04-15T08:26:41.970Z,99.90
2018-04-15T08:29:09.635Z,99.90
2018-04-15T08:31:37.207Z,99.90
2018-04-15T08:34:05.368Z,99.90
2018-04-15T08:36:32.839Z,99.90
2018-04-15T08:39:00.316Z,99.90
2018-04-15T08:41:27.888Z,99.90
2018-04-15T08:43:55.433Z,99.90
2018-04-15T08:46:23.668Z,99.90
2018-04-15T08:48:51.299Z,99.90
2018-04-15T08:51:18.854Z,99.90
2018-04-15T08:53:46.529Z,97.30
2018-04-15T08:56:14.053Z,94.60
2018-04-15T08:58:41.633Z,94.40
2018-04-15T09:01:09.198Z,93.10
2018-04-15T09:03:36.718Z,93.80
2018-04-15T09:06:04.175Z,96.50
2018-04-15T09:08:32.468Z,97.10
2018-04-15T09:11:00.718Z,96.00
2018-04-15T09:13:28.210Z,96.00
2018-04-15T09:15:55.807Z,95.20
2018-04-15T09:18:24.005Z,91.80
2018-04-15T09:20:51.534Z,91.70
2018-04-15T09:23:19.128Z,91.40
2018-04-15T09:25:47.413Z,79.90
2018-04-15T09:28:15.444Z,79.80
2018-04-15T09:30:43.031Z,82.60
2018-04-15T09:33:11.293Z,85.80
2018-04-15T09:35:38.872Z,86.00
2018-04-15T09:38:07.056Z,77.70
2018-04-15T09:40:35.345Z,78.80
2018-04-15T09:43:02.848Z,78.80
2018-04-15T09:45:30.338Z,72.90
2018-04-15T09:47:59.372Z,62.00
2018-04-15T09:50:27.949Z,59.10
2018-04-15T09:52:56.206Z,63.00
2018-04-15T09:55:24.584Z,66.50
2018-04-15T09:57:52.903Z,70.80
2018-04-15T10:00:21.145Z,62.20
2018-04-15T10:02:49.454Z,58.70
2018-04-15T10:05:17.748Z,60.60
2018-04-15T10:07:45.288Z,60.20
2018-04-15T10:10:13.548Z,49.90
2018-04-15T10:12:41.824Z,52.80
2018-04-15T10:15:09.342Z,52.80
2018-04-15T10:17:36.985Z,53.00
2018-04-15T10:20:05.243Z,50.80
2018-04-15T10:22:33.528Z,51.40
2018-04-15T10:25:01.803Z,48.10
2018-04-15T10:27:30.169Z,44.60
2018-04-15T10:29:57.646Z,44.70
2018-04-15T10:32:25.116Z,43.50
2018-04-15T10:34:52.620Z,38.40
2018-04-15T10:37:20.111Z,35.60
2018-04-15T10:39:47.659Z,30.60
2018-04-15T10:42:15.150Z,30.20
2018-04-15T10:44:42.701Z,28.40
2018-04-15T10:47:10.283Z,27.80
2018-04-15T10:49:37.795Z,27.50
2018-04-15T10:52:05.504Z,28.70
2018-04-15T10:54:32.993Z,27.20
2018-04-15T10:57:01.519Z,26.20
2018-04-15T10:59:29.012Z,26.20
2018-04-15T11:01:56.587Z,24.90
2018-04-15T11:04:24.791Z,25.10
2018-04-15T11:06:53.130Z,25.60
2018-04-15T11:09:20.625Z,25.50
2018-04-15T11:11:48.681Z,23.70
2018-04-15T11:14:16.169Z,24.60
2018-04-15T11:16:43.806Z,26.40
2018-04-15T11:19:11.346Z,24.90
2018-04-15T11:21:39.968Z,24.00
2018-04-15T11:24:07.463Z,23.50
2018-04-15T11:26:34.961Z,22.00
2018-04-15T11:29:02.500Z,20.20
2018-04-15T11:31:30.065Z,20.60
2018-04-15T11:33:58.406Z,19.30
2018-04-15T11:36:26.220Z,19.20
2018-04-15T11:38:53.741Z,20.10
2018-04-15T11:41:21.268Z,23.10
2018-04-15T11:43:49.666Z,20.50
2018-04-15T11:46:18.142Z,22.20
2018-04-15T11:48:45.611Z,21.40
2018-04-15T11:51:13.388Z,22.20
2018-04-15T11:53:40.878Z,21.50
2018-04-15T11:56:08.417Z,21.40
2018-04-15T11:58:36.053Z,19.60
2018-04-15T12:01:03.665Z,19.40
2018-04-15T12:03:31.429Z,19.80
2018-04-15T12:05:58.985Z,19.50
2018-04-15T12:08:26.472Z,21.10
2018-04-15T12:10:54.796Z,22.10
2018-04-15T12:13:22.412Z,22.20
2018-04-15T12:15:49.939Z,21.00
2018-04-15T12:18:17.441Z,19.50
2018-04-15T12:20:45.724Z,18.20
2018-04-15T12:23:13.345Z,17.50
2018-04-15T12:25:40.928Z,18.90
2018-04-15T12:28:08.441Z,19.00
2018-04-15T12:30:36.269Z,18.60
2018-04-15T12:33:03.872Z,17.80
2018-04-15T12:35:31.397Z,15.90
2018-04-15T12:37:58.947Z,16.00
2018-04-15T12:40:26.628Z,14.90
2018-04-15T12:42:54.435Z,16.30
2018-04-15T12:45:21.907Z,15.80
2018-04-15T12:47:49.419Z,14.90
2018-04-15T12:50:16.988Z,15.70
2018-04-15T12:52:44.522Z,15.10
2018-04-15T12:55:12.013Z,15.00
2018-04-15T12:57:39.524Z,15.40
2018-04-15T13:00:07.053Z,16.50
2018-04-15T13:02:34.577Z,18.60
2018-04-15T13:05:02.158Z,18.60
2018-04-15T13:07:30.356Z,15.70
2018-04-15T13:09:57.907Z,15.60
2018-04-15T13:12:25.337Z,15.00
2018-04-15T13:14:52.905Z,14.60
2018-04-15T13:17:20.404Z,13.70
2018-04-15T13:19:47.908Z,15.90
2018-04-15T13:22:15.522Z,16.80
2018-04-15T13:24:43.934Z,18.20
2018-04-15T13:27:12.276Z,20.50
2018-04-15T13:29:40.495Z,18.70
2018-04-15T13:32:08.006Z,18.60
2018-04-15T13:34:35.563Z,17.70
2018-04-15T13:37:03.076Z,15.90
2018-04-15T13:39:30.590Z,15.60
2018-04-15T13:41:58.256Z,16.90
2018-04-15T13:44:25.838Z,17.00
2018-04-15T13:46:53.372Z,16.80
2018-04-15T13:49:20.856Z,16.30
2018-04-15T13:51:50.069Z,17.40
2018-04-15T13:54:17.847Z,18.70
2018-04-15T13:56:46.251Z,19.20
2018-04-15T13:59:14.861Z,19.20
2018-04-15T14:01:43.136Z,21.50
2018-04-15T14:04:11.426Z,20.90
2018-04-15T14:06:39.715Z,19.00
2018-04-15T14:09:07.964Z,18.70
2018-04-15T14:11:35.546Z,18.70
2018-04-15T14:14:03.175Z,18.50
2018-04-15T14:16:35.098Z,18.60
2018-04-15T14:19:02.613Z,18.60
2018-04-15T14:21:30.184Z,18.20
2018-04-15T14:23:57.725Z,18.40
2018-04-15T14:26:25.971Z,20.90
2018-04-15T14:28:53.469Z,20.80
2018-04-15T14:31:22.399Z,21.10
2018-04-15T14:33:55.530Z,21.20
2018-04-15T14:36:24.070Z,21.20
2018-04-15T14:38:52.154Z,20.50
2018-04-15T14:41:21.830Z,20.40
2018-04-15T14:43:49.581Z,20.00
2018-04-15T14:46:18.041Z,21.00
2018-04-15T14:48:45.508Z,21.60
2018-04-15T14:51:13.779Z,21.50
2018-04-15T14:53:42.068Z,20.50
2018-04-15T14:56:12.415Z,21.60
2018-04-15T14:58:39.944Z,21.60
2018-04-15T15:01:08.062Z,21.20
2018-04-15T15:03:35.630Z,21.70
2018-04-15T15:06:03.065Z,20.70
2018-04-15T15:08:31.230Z,21.00
2018-04-15T15:10:58.742Z,20.40
2018-04-15T15:13:26.281Z,20.60
2018-04-15T15:15:53.753Z,20.70
2018-04-15T15:18:21.220Z,19.90
2018-04-15T15:20:49.334Z,20.60
2018-04-15T15:23:16.782Z,20.60
2018-04-15T15:25:44.342Z,20.00
2018-04-15T15:28:12.670Z,20.70
2018-04-15T15:30:40.901Z,20.50
2018-04-15T15:33:08.346Z,20.40
2018-04-15T15:35:35.852Z,20.60
2018-04-15T15:38:03.837Z,20.30
2018-04-15T15:40:31.366Z,21.00
2018-04-15T15:42:58.859Z,21.20
2018-04-15T15:45:26.373Z,20.60
2018-04-15T15:47:54.279Z,20.40
2018-04-15T15:50:21.767Z,21.00
2018-04-15T15:52:50.070Z,22.30
2018-04-15T15:55:18.599Z,22.90
2018-04-15T15:57:46.635Z,22.70
2018-04-15T16:00:14.999Z,23.10
2018-04-15T16:02:42.461Z,23.10
2018-04-15T16:05:10.918Z,23.50
2018-04-15T16:07:38.525Z,23.50
2018-04-15T16:10:06.177Z,24.40
2018-04-15T16:12:33.620Z,24.50
2018-04-15T16:15:01.157Z,23.10
2018-04-15T16:17:34.467Z,23.00
2018-04-15T16:20:02.704Z,23.90
2018-04-15T16:22:30.934Z,22.30
2018-04-15T16:24:58.495Z,22.30
2018-04-15T16:27:28.818Z,22.60
2018-04-15T16:29:56.451Z,23.00
2018-04-15T16:32:24.041Z,22.60
2018-04-15T16:34:51.452Z,22.60
2018-04-15T16:37:19.918Z,22.50
2018-04-15T16:39:47.409Z,22.50
2018-04-15T16:42:15.753Z,22.50
2018-04-15T16:47:30.207Z,22.40
2018-04-15T16:49:58.574Z,23.00
2018-04-15T16:52:26.792Z,22.90
2018-04-15T16:54:54.420Z,23.20
2018-04-15T16:57:22.627Z,26.50
2018-04-15T16:59:50.465Z,26.40
2018-04-15T17:02:17.962Z,27.30
2018-04-15T17:04:45.831Z,28.30
2018-04-15T17:07:13.382Z,29.20
2018-04-15T17:09:40.928Z,29.30
2018-04-15T17:12:08.479Z,30.00
2018-04-15T17:14:36.042Z,30.30
2018-04-15T17:17:04.325Z,30.90
2018-04-15T17:19:31.846Z,30.90
2018-04-15T17:21:59.386Z,31.40
2018-04-15T17:24:27.045Z,32.00
2018-04-15T17:26:56.112Z,32.30
2018-04-15T17:29:23.642Z,32.30
2018-04-15T17:31:51.203Z,32.30
2018-04-15T17:34:18.764Z,32.60
2018-04-15T17:36:46.200Z,33.10
2018-04-15T17:39:13.731Z,33.70
2018-04-15T17:41:41.612Z,34.10
2018-04-15T17:44:09.154Z,34.10
2018-04-15T17:46:36.800Z,34.50
2018-04-15T17:49:04.331Z,34.70
2018-04-15T17:51:31.843Z,35.20
2018-04-15T17:53:59.365Z,35.10
2018-04-15T17:56:28.705Z,35.50
2018-04-15T17:58:56.331Z,35.50
2018-04-15T18:01:23.780Z,36.40
2018-04-15T18:03:51.285Z,36.20
2018-04-15T18:06:18.846Z,36.70
2018-04-15T18:08:56.345Z,36.80
2018-04-15T18:11:24.597Z,37.30
2018-04-15T18:13:52.170Z,37.50
2018-04-15T18:26:35.516Z,39.50
2018-04-15T18:29:03.040Z,39.50
2018-04-15T18:31:30.731Z,39.40
2018-04-15T18:33:59.031Z,38.30
2018-04-15T18:36:26.515Z,38.30
2018-04-15T18:38:54.349Z,38.40
2018-04-15T18:41:21.996Z,38.30
2018-04-15T18:43:50.241Z,38.80
2018-04-15T18:46:17.843Z,38.00
2018-04-15T18:48:46.719Z,38.70
2018-04-15T18:51:14.521Z,39.40
2018-04-15T18:53:43.915Z,38.90
2018-04-15T18:56:13.649Z,39.60
2018-04-15T18:58:43.188Z,39.50
2018-04-15T19:01:10.790Z,39.90
2018-04-15T19:03:40.197Z,40.40
2018-04-15T19:06:07.705Z,40.60
2018-04-15T19:08:35.319Z,41.00
2018-04-15T19:11:03.753Z,41.60
2018-04-15T19:13:31.296Z,41.60
2018-04-15T19:15:59.625Z,42.20
2018-04-15T19:18:27.231Z,41.50
2018-04-15T19:20:54.823Z,42.30
2018-04-15T19:23:22.901Z,42.50
2018-04-15T19:25:50.583Z,42.70
2018-04-15T19:28:18.118Z,43.10
2018-04-15T19:30:46.637Z,43.20
2018-04-15T19:33:14.186Z,42.50
2018-04-15T19:35:42.511Z,43.30
2018-04-15T19:38:11.785Z,43.70
2018-04-15T19:40:39.583Z,43.70
2018-04-15T19:43:08.214Z,43.90
2018-04-15T19:45:36.575Z,45.50
2018-04-15T19:48:04.060Z,44.70
2018-04-15T19:50:32.267Z,44.70
2018-04-15T19:52:59.845Z,45.40
2018-04-15T19:55:27.347Z,45.30
2018-04-15T19:57:55.716Z,45.50
2018-04-15T20:00:23.774Z,45.80
2018-04-15T20:02:51.412Z,45.90
2018-04-15T20:05:18.894Z,45.90
2018-04-15T20:07:46.457Z,46.50
2018-04-15T20:10:13.945Z,46.20
2018-04-15T20:12:41.619Z,46.40
2018-04-15T20:15:09.796Z,46.30
2018-04-15T20:17:37.312Z,46.30
2018-04-15T20:20:04.821Z,46.50
2018-04-15T20:22:32.324Z,47.00
2018-04-15T20:24:59.828Z,47.00
2018-04-15T20:27:27.354Z,47.50
2018-04-15T20:29:55.249Z,48.10
2018-04-15T20:32:22.827Z,48.90
2018-04-15T20:34:50.422Z,49.10
2018-04-15T20:37:18.311Z,50.10
2018-04-15T20:39:45.809Z,51.10
2018-04-15T20:42:13.476Z,51.00
2018-04-15T20:44:40.994Z,52.00
2018-04-15T20:47:08.601Z,53.40
2018-04-15T20:49:37.204Z,54.00
2018-04-15T20:52:04.765Z,54.00
2018-04-15T20:54:32.386Z,55.20
2018-04-15T20:57:00.822Z,56.80
2018-04-15T20:59:29.291Z,57.90
2018-04-15T21:01:56.800Z,57.90
2018-04-15T21:04:24.706Z,58.80
2018-04-15T21:06:52.500Z,61.10
2018-04-15T21:09:21.426Z,63.60
2018-04-15T21:11:48.971Z,63.50
2018-04-15T21:14:16.469Z,66.20
2018-04-15T21:16:44.059Z,67.10
2018-04-15T21:19:15.259Z,68.20
2018-04-15T21:21:42.809Z,69.20
2018-04-15T21:24:10.316Z,70.50
2018-04-15T21:26:38.584Z,73.00
2018-04-15T21:29:07.236Z,79.40
2018-04-15T21:31:34.748Z,79.40
2018-04-15T21:34:03.225Z,85.60
2018-04-15T21:36:31.294Z,85.60
2018-04-15T21:39:00.087Z,89.10
2018-04-15T21:41:27.655Z,89.00
2018-04-15T21:43:55.203Z,89.90
2018-04-15T21:46:23.454Z,92.10
2018-04-15T21:48:51.051Z,92.10
2018-04-15T21:51:18.722Z,93.00
2018-04-15T21:53:46.347Z,93.70
2018-04-15T21:56:14.037Z,94.40
2018-04-15T21:58:41.595Z,94.80
2018-04-15T22:01:09.186Z,95.40
2018-04-15T22:03:36.728Z,95.90
2018-04-15T22:06:04.230Z,96.70
2018-04-15T22:08:32.616Z,97.20
2018-04-15T22:11:00.970Z,97.40
2018-04-15T22:13:28.508Z,97.40
2018-04-15T22:15:56.117Z,98.10
2018-04-15T22:18:23.702Z,98.30
2018-04-15T22:20:51.217Z,98.70
2018-04-15T22:23:18.767Z,99.00
2018-04-15T22:25:47.222Z,99.70
2018-04-15T22:28:15.050Z,99.70
2018-04-15T22:30:42.585Z,99.80
2018-04-15T22:33:10.093Z,99.90
2018-04-15T22:35:38.453Z,99.90
2018-04-15T22:38:05.950Z,99.90
2018-04-15T22:40:33.510Z,99.90
2018-04-15T22:43:01.048Z,99.90
2018-04-15T22:45:28.912Z,99.90
2018-04-15T22:47:56.447Z,99.90
2018-04-15T22:50:24.085Z,99.90
2018-04-15T22:52:52.222Z,99.90
2018-04-15T22:55:19.976Z,99.60
2018-04-15T22:57:47.456Z,99.50
2018-04-15T23:00:15.291Z,99.50
2018-04-15T23:02:42.806Z,99.60
2018-04-15T23:05:11.093Z,99.30
2018-04-15T23:07:39.364Z,99.10
2018-04-15T23:10:06.863Z,99.10
2018-04-15T23:12:34.430Z,98.90
2018-04-15T23:15:01.959Z,98.60
2018-04-15T23:17:31.128Z,98.80
2018-04-15T23:19:58.743Z,98.80
2018-04-15T23:22:27.035Z,98.90
2018-04-15T23:24:54.577Z,98.80
2018-04-15T23:27:22.903Z,99.00
2018-04-15T23:29:50.357Z,99.00
2018-04-15T23:32:17.870Z,99.20
2018-04-15T23:34:45.388Z,99.10
2018-04-15T23:37:12.887Z,99.20
2018-04-15T23:39:40.403Z,99.30
2018-04-15T23:42:09.094Z,99.70
2018-04-15T23:44:36.602Z,99.90
2018-04-15T23:47:04.167Z,99.90
2018-04-15T23:49:31.723Z,99.90
2018-04-15T23:51:59.230Z,99.90
2018-04-15T23:54:26.740Z,99.90
2018-04-15T23:56:54.293Z,99.90
2018-04-15T23:59:21.773Z,99.90
